sensor_id;sensor_type;location;lat;lon;timestamp;temperature;humidity
16732;DHT22;8484;50.904;9.192;2023-08-31T00:01:11;11.90;99.90
16732;DHT22;8484;50.904;9.192;2023-08-31T00:03:39;11.90;99.90
16732;DHT22;8484;50.904;9.192;2023-08-31T00:06:06;11.90;99.90
16732;DHT22;8484;50.904;9.192;2023-08-31T00:08:34;11.90;99.90
16732;DHT22;8484;50.904;9.192;2023-08-31T00:11:01;11.90;99.90
16732;DHT22;8484;50.904;9.192;2023-08-31T00:13:29;11.80;99.90
16732;DHT22;8484;50.904;9.192;2023-08-31T00:15:57;12.00;99.90
16732;DHT22;8484;50.904;9.192;2023-08-31T00:18:26;11.90;99.90
16732;DHT22;8484;50.904;9.192;2023-08-31T00:20:53;11.90;99.90
16732;DHT22;8484;50.904;9.192;2023-08-31T00:23:20;11.90;99.90
16732;DHT22;8484;50.904;9.192;2023-08-31T00:25:47;11.80;99.90
16732;DHT22;8484;50.904;9.192;2023-08-31T00:28:14;11.80;99.90
16732;DHT22;8484;50.904;9.192;2023-08-31T00:30:44;11.80;99.90
16732;DHT22;8484;50.904;9.192;2023-08-31T00:33:11;11.80;99.90
16732;DHT22;8484;50.904;9.192;2023-08-31T00:35:40;11.80;99.90
16732;DHT22;8484;50.904;9.192;2023-08-31T00:38:09;11.80;99.90
16732;DHT22;8484;50.904;9.192;2023-08-31T00:40:39;11.80;99.90
16732;DHT22;8484;50.904;9.192;2023-08-31T00:43:11;11.80;99.90
16732;DHT22;8484;50.904;9.192;2023-08-31T00:45:39;11.70;99.90
16732;DHT22;8484;50.904;9.192;2023-08-31T00:48:06;11.70;99.90
16732;DHT22;8484;50.904;9.192;2023-08-31T00:50:34;11.70;99.90
16732;DHT22;8484;50.904;9.192;2023-08-31T00:53:02;11.70;99.90
16732;DHT22;8484;50.904;9.192;2023-08-31T00:55:30;11.70;99.90
16732;DHT22;8484;50.904;9.192;2023-08-31T00:57:58;11.70;99.90
16732;DHT22;8484;50.904;9.192;2023-08-31T01:00:33;11.60;99.90
16732;DHT22;8484;50.904;9.192;2023-08-31T01:03:07;11.60;99.90
16732;DHT22;8484;50.904;9.192;2023-08-31T01:05:42;11.50;99.90
16732;DHT22;8484;50.904;9.192;2023-08-31T01:08:21;11.50;99.90
16732;DHT22;8484;50.904;9.192;2023-08-31T01:11:00;11.50;99.90
16732;DHT22;8484;50.904;9.192;2023-08-31T01:13:31;11.60;99.90
16732;DHT22;8484;50.904;9.192;2023-08-31T01:16:06;11.60;99.90
16732;DHT22;8484;50.904;9.192;2023-08-31T01:18:35;11.70;99.90
16732;DHT22;8484;50.904;9.192;2023-08-31T01:21:11;11.60;99.90
16732;DHT22;8484;50.904;9.192;2023-08-31T01:23:54;11.60;99.90
16732;DHT22;8484;50.904;9.192;2023-08-31T01:26:21;11.60;99.90
16732;DHT22;8484;50.904;9.192;2023-08-31T01:28:49;11.60;99.90
16732;DHT22;8484;50.904;9.192;2023-08-31T01:31:17;11.60;99.90
16732;DHT22;8484;50.904;9.192;2023-08-31T01:33:44;11.60;99.90
16732;DHT22;8484;50.904;9.192;2023-08-31T01:36:17;11.70;99.90
16732;DHT22;8484;50.904;9.192;2023-08-31T01:38:50;11.60;99.90
16732;DHT22;8484;50.904;9.192;2023-08-31T01:41:20;11.70;99.90
16732;DHT22;8484;50.904;9.192;2023-08-31T01:43:50;11.60;99.90
16732;DHT22;8484;50.904;9.192;2023-08-31T01:46:18;11.50;99.90
16732;DHT22;8484;50.904;9.192;2023-08-31T01:48:46;11.50;99.90
16732;DHT22;8484;50.904;9.192;2023-08-31T01:51:13;11.60;99.90
16732;DHT22;8484;50.904;9.192;2023-08-31T01:53:40;11.70;99.90
16732;DHT22;8484;50.904;9.192;2023-08-31T01:56:07;11.60;99.90
16732;DHT22;8484;50.904;9.192;2023-08-31T01:58:35;11.60;99.90
16732;DHT22;8484;50.904;9.192;2023-08-31T02:01:02;11.60;99.90
16732;DHT22;8484;50.904;9.192;2023-08-31T02:03:29;11.50;99.90
16732;DHT22;8484;50.904;9.192;2023-08-31T02:05:56;11.50;99.90
16732;DHT22;8484;50.904;9.192;2023-08-31T02:08:24;11.40;99.90
16732;DHT22;8484;50.904;9.192;2023-08-31T02:10:50;11.40;99.90
16732;DHT22;8484;50.904;9.192;2023-08-31T02:13:20;11.30;99.90
16732;DHT22;8484;50.904;9.192;2023-08-31T02:15:51;11.20;99.90
16732;DHT22;8484;50.904;9.192;2023-08-31T02:18:18;11.30;99.90
16732;DHT22;8484;50.904;9.192;2023-08-31T02:20:45;11.20;99.90
16732;DHT22;8484;50.904;9.192;2023-08-31T02:23:12;11.20;99.90
16732;DHT22;8484;50.904;9.192;2023-08-31T02:25:45;11.20;99.90
16732;DHT22;8484;50.904;9.192;2023-08-31T02:28:12;11.10;99.90
16732;DHT22;8484;50.904;9.192;2023-08-31T02:30:40;11.20;99.90
16732;DHT22;8484;50.904;9.192;2023-08-31T02:33:08;11.20;99.90
16732;DHT22;8484;50.904;9.192;2023-08-31T02:35:36;11.10;99.90
16732;DHT22;8484;50.904;9.192;2023-08-31T02:38:03;11.10;99.90
16732;DHT22;8484;50.904;9.192;2023-08-31T02:40:30;11.20;99.90
16732;DHT22;8484;50.904;9.192;2023-08-31T02:42:57;11.10;99.90
16732;DHT22;8484;50.904;9.192;2023-08-31T02:45:25;11.10;99.90
16732;DHT22;8484;50.904;9.192;2023-08-31T02:47:52;11.10;99.90
16732;DHT22;8484;50.904;9.192;2023-08-31T02:50:22;11.00;99.90
16732;DHT22;8484;50.904;9.192;2023-08-31T02:52:49;11.00;99.90
16732;DHT22;8484;50.904;9.192;2023-08-31T02:55:16;11.10;99.90
16732;DHT22;8484;50.904;9.192;2023-08-31T02:57:43;11.00;99.90
16732;DHT22;8484;50.904;9.192;2023-08-31T03:00:11;11.10;99.90
16732;DHT22;8484;50.904;9.192;2023-08-31T03:02:40;11.10;99.90
16732;DHT22;8484;50.904;9.192;2023-08-31T03:05:07;11.00;99.90
16732;DHT22;8484;50.904;9.192;2023-08-31T03:07:36;11.10;99.90
16732;DHT22;8484;50.904;9.192;2023-08-31T03:10:03;11.10;99.90
16732;DHT22;8484;50.904;9.192;2023-08-31T03:12:31;11.20;99.90
16732;DHT22;8484;50.904;9.192;2023-08-31T03:14:58;11.20;99.90
16732;DHT22;8484;50.904;9.192;2023-08-31T03:17:25;11.20;99.90
16732;DHT22;8484;50.904;9.192;2023-08-31T03:19:52;11.20;99.90
16732;DHT22;8484;50.904;9.192;2023-08-31T03:22:20;11.30;99.90
16732;DHT22;8484;50.904;9.192;2023-08-31T03:24:49;11.30;99.90
16732;DHT22;8484;50.904;9.192;2023-08-31T03:27:16;11.20;99.90
16732;DHT22;8484;50.904;9.192;2023-08-31T03:29:44;11.20;99.90
16732;DHT22;8484;50.904;9.192;2023-08-31T03:32:11;11.20;99.90
16732;DHT22;8484;50.904;9.192;2023-08-31T03:34:38;11.20;99.90
16732;DHT22;8484;50.904;9.192;2023-08-31T03:37:08;11.20;99.90
16732;DHT22;8484;50.904;9.192;2023-08-31T03:39:35;11.20;99.90
16732;DHT22;8484;50.904;9.192;2023-08-31T03:42:04;11.20;99.90
16732;DHT22;8484;50.904;9.192;2023-08-31T03:44:31;11.10;99.90
16732;DHT22;8484;50.904;9.192;2023-08-31T03:46:58;11.10;99.90
16732;DHT22;8484;50.904;9.192;2023-08-31T03:49:26;11.10;99.90
16732;DHT22;8484;50.904;9.192;2023-08-31T03:51:53;11.00;99.90
16732;DHT22;8484;50.904;9.192;2023-08-31T03:54:20;11.10;99.90
16732;DHT22;8484;50.904;9.192;2023-08-31T03:56:47;11.10;99.90
16732;DHT22;8484;50.904;9.192;2023-08-31T03:59:16;11.10;99.90
16732;DHT22;8484;50.904;9.192;2023-08-31T04:01:44;11.20;99.90
16732;DHT22;8484;50.904;9.192;2023-08-31T04:04:11;11.20;99.90
16732;DHT22;8484;50.904;9.192;2023-08-31T04:06:38;11.30;99.90
16732;DHT22;8484;50.904;9.192;2023-08-31T04:09:05;11.30;99.90
16732;DHT22;8484;50.904;9.192;2023-08-31T04:11:32;11.30;99.90
16732;DHT22;8484;50.904;9.192;2023-08-31T04:13:59;11.40;99.90
16732;DHT22;8484;50.904;9.192;2023-08-31T04:16:28;11.30;99.90
16732;DHT22;8484;50.904;9.192;2023-08-31T04:18:55;11.40;99.90
16732;DHT22;8484;50.904;9.192;2023-08-31T04:21:23;11.40;99.90
16732;DHT22;8484;50.904;9.192;2023-08-31T04:23:50;11.40;99.90
16732;DHT22;8484;50.904;9.192;2023-08-31T04:26:17;11.40;99.90
16732;DHT22;8484;50.904;9.192;2023-08-31T04:28:46;11.50;99.90
16732;DHT22;8484;50.904;9.192;2023-08-31T04:31:13;11.40;99.90
16732;DHT22;8484;50.904;9.192;2023-08-31T04:33:41;11.40;99.90
16732;DHT22;8484;50.904;9.192;2023-08-31T04:36:08;11.40;99.90
16732;DHT22;8484;50.904;9.192;2023-08-31T04:38:35;11.40;99.90
16732;DHT22;8484;50.904;9.192;2023-08-31T04:41:03;11.50;99.90
16732;DHT22;8484;50.904;9.192;2023-08-31T04:43:30;11.60;99.90
16732;DHT22;8484;50.904;9.192;2023-08-31T04:45:58;11.60;99.90
16732;DHT22;8484;50.904;9.192;2023-08-31T04:48:26;11.50;99.90
16732;DHT22;8484;50.904;9.192;2023-08-31T04:50:57;11.60;99.90
16732;DHT22;8484;50.904;9.192;2023-08-31T04:53:24;11.60;99.90
16732;DHT22;8484;50.904;9.192;2023-08-31T04:55:52;11.60;99.90
16732;DHT22;8484;50.904;9.192;2023-08-31T04:58:19;11.60;99.90
16732;DHT22;8484;50.904;9.192;2023-08-31T05:00:46;11.60;99.90
16732;DHT22;8484;50.904;9.192;2023-08-31T05:03:13;11.60;99.90
16732;DHT22;8484;50.904;9.192;2023-08-31T05:05:40;11.60;99.90
16732;DHT22;8484;50.904;9.192;2023-08-31T05:08:11;11.80;99.90
16732;DHT22;8484;50.904;9.192;2023-08-31T05:10:38;11.80;99.90
16732;DHT22;8484;50.904;9.192;2023-08-31T05:13:05;11.70;99.90
16732;DHT22;8484;50.904;9.192;2023-08-31T05:15:32;11.70;99.90
16732;DHT22;8484;50.904;9.192;2023-08-31T05:18:01;11.70;99.90
16732;DHT22;8484;50.904;9.192;2023-08-31T05:20:29;11.60;99.90
16732;DHT22;8484;50.904;9.192;2023-08-31T05:22:56;11.70;99.90
16732;DHT22;8484;50.904;9.192;2023-08-31T05:25:24;11.70;99.90
16732;DHT22;8484;50.904;9.192;2023-08-31T05:27:51;11.80;99.90
16732;DHT22;8484;50.904;9.192;2023-08-31T05:30:19;11.70;99.90
16732;DHT22;8484;50.904;9.192;2023-08-31T05:32:46;11.70;99.90
16732;DHT22;8484;50.904;9.192;2023-08-31T05:35:13;11.70;99.90
16732;DHT22;8484;50.904;9.192;2023-08-31T05:37:40;11.60;99.90
16732;DHT22;8484;50.904;9.192;2023-08-31T05:40:08;11.60;99.90
16732;DHT22;8484;50.904;9.192;2023-08-31T05:42:38;11.70;99.90
16732;DHT22;8484;50.904;9.192;2023-08-31T05:45:06;11.70;99.90
16732;DHT22;8484;50.904;9.192;2023-08-31T05:47:33;11.70;99.90
16732;DHT22;8484;50.904;9.192;2023-08-31T05:50:00;11.60;99.90
16732;DHT22;8484;50.904;9.192;2023-08-31T05:52:27;11.80;99.90
16732;DHT22;8484;50.904;9.192;2023-08-31T05:54:54;11.80;99.90
16732;DHT22;8484;50.904;9.192;2023-08-31T05:57:22;11.80;99.90
16732;DHT22;8484;50.904;9.192;2023-08-31T05:59:50;11.80;99.90
16732;DHT22;8484;50.904;9.192;2023-08-31T06:02:18;11.90;99.90
16732;DHT22;8484;50.904;9.192;2023-08-31T06:04:45;12.10;99.90
16732;DHT22;8484;50.904;9.192;2023-08-31T06:07:12;12.20;99.90
16732;DHT22;8484;50.904;9.192;2023-08-31T06:09:39;12.10;99.90
16732;DHT22;8484;50.904;9.192;2023-08-31T06:12:06;12.20;99.90
16732;DHT22;8484;50.904;9.192;2023-08-31T06:14:34;12.40;99.90
16732;DHT22;8484;50.904;9.192;2023-08-31T06:17:03;12.70;99.90
16732;DHT22;8484;50.904;9.192;2023-08-31T06:19:32;12.60;99.90
16732;DHT22;8484;50.904;9.192;2023-08-31T06:21:59;12.60;99.90
16732;DHT22;8484;50.904;9.192;2023-08-31T06:24:26;12.70;99.90
16732;DHT22;8484;50.904;9.192;2023-08-31T06:26:53;12.60;99.90
16732;DHT22;8484;50.904;9.192;2023-08-31T06:29:20;12.70;99.90
16732;DHT22;8484;50.904;9.192;2023-08-31T06:31:47;12.80;99.90
16732;DHT22;8484;50.904;9.192;2023-08-31T06:34:15;12.60;99.90
16732;DHT22;8484;50.904;9.192;2023-08-31T06:36:42;12.70;99.90
16732;DHT22;8484;50.904;9.192;2023-08-31T06:39:09;12.90;99.90
16732;DHT22;8484;50.904;9.192;2023-08-31T06:41:36;13.20;99.90
16732;DHT22;8484;50.904;9.192;2023-08-31T06:44:03;13.30;99.90
16732;DHT22;8484;50.904;9.192;2023-08-31T06:46:31;13.50;99.90
16732;DHT22;8484;50.904;9.192;2023-08-31T06:49:03;13.40;99.90
16732;DHT22;8484;50.904;9.192;2023-08-31T06:51:32;13.70;99.90
16732;DHT22;8484;50.904;9.192;2023-08-31T06:53:59;13.80;99.90
16732;DHT22;8484;50.904;9.192;2023-08-31T06:56:31;13.60;99.90
16732;DHT22;8484;50.904;9.192;2023-08-31T06:58:59;13.80;99.90
16732;DHT22;8484;50.904;9.192;2023-08-31T07:01:26;13.60;99.90
16732;DHT22;8484;50.904;9.192;2023-08-31T07:03:53;13.60;99.90
16732;DHT22;8484;50.904;9.192;2023-08-31T07:06:20;13.50;99.90
16732;DHT22;8484;50.904;9.192;2023-08-31T07:08:49;13.60;99.90
16732;DHT22;8484;50.904;9.192;2023-08-31T07:11:16;13.80;99.90
16732;DHT22;8484;50.904;9.192;2023-08-31T07:13:43;14.00;99.90
16732;DHT22;8484;50.904;9.192;2023-08-31T07:16:10;13.80;99.90
16732;DHT22;8484;50.904;9.192;2023-08-31T07:18:37;13.90;99.90
16732;DHT22;8484;50.904;9.192;2023-08-31T07:21:04;13.80;99.90
16732;DHT22;8484;50.904;9.192;2023-08-31T07:23:31;13.80;99.90
16732;DHT22;8484;50.904;9.192;2023-08-31T07:26:00;13.60;99.90
16732;DHT22;8484;50.904;9.192;2023-08-31T07:28:27;14.00;99.90
16732;DHT22;8484;50.904;9.192;2023-08-31T07:31:01;14.80;99.90
16732;DHT22;8484;50.904;9.192;2023-08-31T07:33:29;14.60;99.90
16732;DHT22;8484;50.904;9.192;2023-08-31T07:35:57;14.80;99.90
16732;DHT22;8484;50.904;9.192;2023-08-31T07:38:24;15.10;99.90
16732;DHT22;8484;50.904;9.192;2023-08-31T07:40:51;15.00;99.90
16732;DHT22;8484;50.904;9.192;2023-08-31T07:43:19;15.40;99.90
16732;DHT22;8484;50.904;9.192;2023-08-31T07:45:46;15.20;99.90
16732;DHT22;8484;50.904;9.192;2023-08-31T07:48:13;15.30;99.90
16732;DHT22;8484;50.904;9.192;2023-08-31T07:50:40;15.60;99.90
16732;DHT22;8484;50.904;9.192;2023-08-31T07:53:07;14.50;99.90
16732;DHT22;8484;50.904;9.192;2023-08-31T07:55:34;14.70;99.90
16732;DHT22;8484;50.904;9.192;2023-08-31T07:58:02;14.70;99.90
16732;DHT22;8484;50.904;9.192;2023-08-31T08:00:30;14.40;99.90
16732;DHT22;8484;50.904;9.192;2023-08-31T08:02:57;14.80;99.90
16732;DHT22;8484;50.904;9.192;2023-08-31T08:05:24;15.20;99.90
16732;DHT22;8484;50.904;9.192;2023-08-31T08:07:57;15.00;99.90
16732;DHT22;8484;50.904;9.192;2023-08-31T08:10:24;15.40;99.90
16732;DHT22;8484;50.904;9.192;2023-08-31T08:12:51;15.40;99.90
16732;DHT22;8484;50.904;9.192;2023-08-31T08:15:18;15.40;99.90
16732;DHT22;8484;50.904;9.192;2023-08-31T08:17:46;15.30;99.90
16732;DHT22;8484;50.904;9.192;2023-08-31T08:20:13;14.90;99.90
16732;DHT22;8484;50.904;9.192;2023-08-31T08:22:40;15.30;99.90
16732;DHT22;8484;50.904;9.192;2023-08-31T08:25:08;15.60;99.90
16732;DHT22;8484;50.904;9.192;2023-08-31T08:27:45;16.10;99.90
16732;DHT22;8484;50.904;9.192;2023-08-31T08:30:12;16.60;99.90
16732;DHT22;8484;50.904;9.192;2023-08-31T08:32:41;16.80;99.90
16732;DHT22;8484;50.904;9.192;2023-08-31T08:35:10;16.50;99.90
16732;DHT22;8484;50.904;9.192;2023-08-31T08:37:37;16.20;99.90
16732;DHT22;8484;50.904;9.192;2023-08-31T08:40:05;16.40;99.90
16732;DHT22;8484;50.904;9.192;2023-08-31T08:42:32;16.50;99.90
16732;DHT22;8484;50.904;9.192;2023-08-31T08:45:06;15.80;99.90
16732;DHT22;8484;50.904;9.192;2023-08-31T08:47:36;15.70;99.90
16732;DHT22;8484;50.904;9.192;2023-08-31T08:50:04;15.30;99.90
16732;DHT22;8484;50.904;9.192;2023-08-31T08:52:33;15.70;99.90
16732;DHT22;8484;50.904;9.192;2023-08-31T08:55:01;16.90;99.90
16732;DHT22;8484;50.904;9.192;2023-08-31T08:57:29;17.20;99.90
16732;DHT22;8484;50.904;9.192;2023-08-31T08:59:57;17.50;99.90
16732;DHT22;8484;50.904;9.192;2023-08-31T09:02:24;17.10;99.90
16732;DHT22;8484;50.904;9.192;2023-08-31T09:04:51;17.50;99.90
16732;DHT22;8484;50.904;9.192;2023-08-31T09:07:20;18.10;99.90
16732;DHT22;8484;50.904;9.192;2023-08-31T09:09:50;18.10;99.90
16732;DHT22;8484;50.904;9.192;2023-08-31T09:12:17;17.30;99.90
16732;DHT22;8484;50.904;9.192;2023-08-31T09:14:56;16.60;99.90
16732;DHT22;8484;50.904;9.192;2023-08-31T09:17:24;17.20;99.90
16732;DHT22;8484;50.904;9.192;2023-08-31T09:19:59;17.50;99.90
16732;DHT22;8484;50.904;9.192;2023-08-31T09:22:27;17.50;99.90
16732;DHT22;8484;50.904;9.192;2023-08-31T09:24:56;17.80;99.90
16732;DHT22;8484;50.904;9.192;2023-08-31T09:27:23;17.70;99.90
16732;DHT22;8484;50.904;9.192;2023-08-31T09:29:50;18.70;99.90
16732;DHT22;8484;50.904;9.192;2023-08-31T09:32:20;18.50;99.90
16732;DHT22;8484;50.904;9.192;2023-08-31T09:34:48;18.30;99.90
16732;DHT22;8484;50.904;9.192;2023-08-31T09:37:16;19.10;99.90
16732;DHT22;8484;50.904;9.192;2023-08-31T09:39:43;20.00;99.90
16732;DHT22;8484;50.904;9.192;2023-08-31T09:42:12;19.00;99.90
16732;DHT22;8484;50.904;9.192;2023-08-31T09:44:43;17.10;99.90
16732;DHT22;8484;50.904;9.192;2023-08-31T09:47:13;17.50;99.90
16732;DHT22;8484;50.904;9.192;2023-08-31T09:49:41;19.10;99.90
16732;DHT22;8484;50.904;9.192;2023-08-31T09:52:09;18.50;99.90
16732;DHT22;8484;50.904;9.192;2023-08-31T09:54:36;19.00;99.90
16732;DHT22;8484;50.904;9.192;2023-08-31T09:57:05;20.10;99.90
16732;DHT22;8484;50.904;9.192;2023-08-31T09:59:33;19.90;99.90
16732;DHT22;8484;50.904;9.192;2023-08-31T10:02:01;19.50;99.90
16732;DHT22;8484;50.904;9.192;2023-08-31T10:04:30;19.00;99.90
16732;DHT22;8484;50.904;9.192;2023-08-31T10:06:59;18.30;99.90
16732;DHT22;8484;50.904;9.192;2023-08-31T10:09:26;18.10;99.90
16732;DHT22;8484;50.904;9.192;2023-08-31T10:11:55;17.70;99.90
16732;DHT22;8484;50.904;9.192;2023-08-31T10:14:22;18.60;99.90
16732;DHT22;8484;50.904;9.192;2023-08-31T10:16:50;19.20;99.90
16732;DHT22;8484;50.904;9.192;2023-08-31T10:19:19;19.40;99.90
16732;DHT22;8484;50.904;9.192;2023-08-31T10:21:46;18.90;99.90
16732;DHT22;8484;50.904;9.192;2023-08-31T10:24:13;18.60;99.90
16732;DHT22;8484;50.904;9.192;2023-08-31T10:26:41;18.60;99.90
16732;DHT22;8484;50.904;9.192;2023-08-31T10:29:25;18.80;99.90
16732;DHT22;8484;50.904;9.192;2023-08-31T10:32:02;19.90;99.90
16732;DHT22;8484;50.904;9.192;2023-08-31T10:34:36;19.10;99.90
16732;DHT22;8484;50.904;9.192;2023-08-31T10:37:19;18.50;99.90
16732;DHT22;8484;50.904;9.192;2023-08-31T10:40:06;19.70;99.90
16732;DHT22;8484;50.904;9.192;2023-08-31T10:42:42;18.60;99.90
16732;DHT22;8484;50.904;9.192;2023-08-31T10:45:10;19.20;99.90
16732;DHT22;8484;50.904;9.192;2023-08-31T10:47:40;20.20;99.90
16732;DHT22;8484;50.904;9.192;2023-08-31T10:50:19;20.40;99.90
16732;DHT22;8484;50.904;9.192;2023-08-31T10:52:47;20.80;99.90
16732;DHT22;8484;50.904;9.192;2023-08-31T10:55:13;21.60;99.90
16732;DHT22;8484;50.904;9.192;2023-08-31T10:57:41;21.40;99.90
16732;DHT22;8484;50.904;9.192;2023-08-31T11:00:13;19.80;99.90
16732;DHT22;8484;50.904;9.192;2023-08-31T11:02:44;20.00;99.90
16732;DHT22;8484;50.904;9.192;2023-08-31T11:05:17;19.60;99.90
16732;DHT22;8484;50.904;9.192;2023-08-31T11:07:44;19.60;99.90
16732;DHT22;8484;50.904;9.192;2023-08-31T11:10:14;20.80;99.90
16732;DHT22;8484;50.904;9.192;2023-08-31T11:12:43;21.10;99.90
16732;DHT22;8484;50.904;9.192;2023-08-31T11:15:14;21.00;99.90
16732;DHT22;8484;50.904;9.192;2023-08-31T11:17:43;19.80;99.90
16732;DHT22;8484;50.904;9.192;2023-08-31T11:20:13;18.70;99.90
16732;DHT22;8484;50.904;9.192;2023-08-31T11:22:43;18.30;99.90
16732;DHT22;8484;50.904;9.192;2023-08-31T11:25:12;18.10;99.90
16732;DHT22;8484;50.904;9.192;2023-08-31T11:27:56;18.10;99.90
16732;DHT22;8484;50.904;9.192;2023-08-31T11:30:25;17.70;99.90
16732;DHT22;8484;50.904;9.192;2023-08-31T11:32:54;17.60;99.90
16732;DHT22;8484;50.904;9.192;2023-08-31T11:35:22;18.00;99.90
16732;DHT22;8484;50.904;9.192;2023-08-31T11:37:52;19.50;99.90
16732;DHT22;8484;50.904;9.192;2023-08-31T11:40:19;18.90;99.90
16732;DHT22;8484;50.904;9.192;2023-08-31T11:42:48;18.30;99.90
16732;DHT22;8484;50.904;9.192;2023-08-31T11:45:15;18.70;99.90
16732;DHT22;8484;50.904;9.192;2023-08-31T11:47:43;19.50;99.90
16732;DHT22;8484;50.904;9.192;2023-08-31T11:50:13;20.10;99.90
16732;DHT22;8484;50.904;9.192;2023-08-31T11:52:42;20.80;99.90
16732;DHT22;8484;50.904;9.192;2023-08-31T11:55:12;19.90;99.90
16732;DHT22;8484;50.904;9.192;2023-08-31T11:57:40;21.00;99.90
16732;DHT22;8484;50.904;9.192;2023-08-31T12:00:08;21.60;99.90
16732;DHT22;8484;50.904;9.192;2023-08-31T12:02:36;22.10;99.90
16732;DHT22;8484;50.904;9.192;2023-08-31T12:05:04;21.80;99.90
16732;DHT22;8484;50.904;9.192;2023-08-31T12:07:39;21.70;99.90
16732;DHT22;8484;50.904;9.192;2023-08-31T12:10:07;21.50;99.90
16732;DHT22;8484;50.904;9.192;2023-08-31T12:12:36;19.50;99.90
16732;DHT22;8484;50.904;9.192;2023-08-31T12:15:05;18.70;99.90
16732;DHT22;8484;50.904;9.192;2023-08-31T12:17:37;18.40;99.90
16732;DHT22;8484;50.904;9.192;2023-08-31T12:20:05;18.30;99.90
16732;DHT22;8484;50.904;9.192;2023-08-31T12:22:34;18.20;99.90
16732;DHT22;8484;50.904;9.192;2023-08-31T12:25:01;18.20;99.90
16732;DHT22;8484;50.904;9.192;2023-08-31T12:27:28;18.30;99.90
16732;DHT22;8484;50.904;9.192;2023-08-31T12:29:56;18.20;99.90
16732;DHT22;8484;50.904;9.192;2023-08-31T12:32:23;18.30;99.90
16732;DHT22;8484;50.904;9.192;2023-08-31T12:34:50;18.40;99.90
16732;DHT22;8484;50.904;9.192;2023-08-31T12:37:17;18.40;99.90
16732;DHT22;8484;50.904;9.192;2023-08-31T12:39:46;18.60;99.90
16732;DHT22;8484;50.904;9.192;2023-08-31T12:42:14;18.30;99.90
16732;DHT22;8484;50.904;9.192;2023-08-31T12:44:40;18.20;99.90
16732;DHT22;8484;50.904;9.192;2023-08-31T12:47:07;19.30;99.90
16732;DHT22;8484;50.904;9.192;2023-08-31T12:49:34;19.80;99.90
16732;DHT22;8484;50.904;9.192;2023-08-31T12:52:05;19.60;99.90
16732;DHT22;8484;50.904;9.192;2023-08-31T12:54:32;19.60;99.90
16732;DHT22;8484;50.904;9.192;2023-08-31T12:57:00;19.70;99.90
16732;DHT22;8484;50.904;9.192;2023-08-31T12:59:28;20.60;99.90
16732;DHT22;8484;50.904;9.192;2023-08-31T13:01:55;20.70;99.90
16732;DHT22;8484;50.904;9.192;2023-08-31T13:04:22;19.90;99.90
16732;DHT22;8484;50.904;9.192;2023-08-31T13:06:50;19.40;99.90
16732;DHT22;8484;50.904;9.192;2023-08-31T13:09:17;18.60;99.90
16732;DHT22;8484;50.904;9.192;2023-08-31T13:11:44;18.30;99.90
16732;DHT22;8484;50.904;9.192;2023-08-31T13:14:12;18.40;99.90
16732;DHT22;8484;50.904;9.192;2023-08-31T13:16:39;18.60;99.90
16732;DHT22;8484;50.904;9.192;2023-08-31T13:19:06;18.90;99.90
16732;DHT22;8484;50.904;9.192;2023-08-31T13:21:33;18.70;99.90
16732;DHT22;8484;50.904;9.192;2023-08-31T13:24:00;19.10;99.90
16732;DHT22;8484;50.904;9.192;2023-08-31T13:26:27;18.70;99.90
16732;DHT22;8484;50.904;9.192;2023-08-31T13:28:54;19.60;99.90
16732;DHT22;8484;50.904;9.192;2023-08-31T13:31:22;20.30;99.90
16732;DHT22;8484;50.904;9.192;2023-08-31T13:33:50;20.70;99.90
16732;DHT22;8484;50.904;9.192;2023-08-31T13:36:17;20.30;99.90
16732;DHT22;8484;50.904;9.192;2023-08-31T13:38:44;20.10;99.90
16732;DHT22;8484;50.904;9.192;2023-08-31T13:41:11;20.30;99.90
16732;DHT22;8484;50.904;9.192;2023-08-31T13:43:38;19.50;99.90
16732;DHT22;8484;50.904;9.192;2023-08-31T13:46:05;19.30;99.90
16732;DHT22;8484;50.904;9.192;2023-08-31T13:48:33;19.20;99.90
16732;DHT22;8484;50.904;9.192;2023-08-31T13:51:00;19.20;99.90
16732;DHT22;8484;50.904;9.192;2023-08-31T13:53:28;19.60;99.90
16732;DHT22;8484;50.904;9.192;2023-08-31T13:55:55;19.90;99.90
16732;DHT22;8484;50.904;9.192;2023-08-31T13:58:22;19.60;99.90
16732;DHT22;8484;50.904;9.192;2023-08-31T14:00:49;20.00;99.90
16732;DHT22;8484;50.904;9.192;2023-08-31T14:03:16;20.30;99.90
16732;DHT22;8484;50.904;9.192;2023-08-31T14:05:47;20.30;99.90
16732;DHT22;8484;50.904;9.192;2023-08-31T14:08:14;20.10;99.90
16732;DHT22;8484;50.904;9.192;2023-08-31T14:10:41;19.80;99.90
16732;DHT22;8484;50.904;9.192;2023-08-31T14:13:08;19.70;99.90
16732;DHT22;8484;50.904;9.192;2023-08-31T14:15:35;19.70;99.90
16732;DHT22;8484;50.904;9.192;2023-08-31T14:18:09;19.80;99.90
16732;DHT22;8484;50.904;9.192;2023-08-31T14:20:36;19.90;99.90
16732;DHT22;8484;50.904;9.192;2023-08-31T14:23:05;20.20;99.90
16732;DHT22;8484;50.904;9.192;2023-08-31T14:25:34;20.20;99.90
16732;DHT22;8484;50.904;9.192;2023-08-31T14:28:01;20.60;99.90
16732;DHT22;8484;50.904;9.192;2023-08-31T14:30:28;20.70;99.90
16732;DHT22;8484;50.904;9.192;2023-08-31T14:32:55;20.50;99.90
16732;DHT22;8484;50.904;9.192;2023-08-31T14:35:22;20.80;99.90
16732;DHT22;8484;50.904;9.192;2023-08-31T14:37:49;20.20;99.90
16732;DHT22;8484;50.904;9.192;2023-08-31T14:40:18;20.30;99.90
16732;DHT22;8484;50.904;9.192;2023-08-31T14:42:45;19.90;99.90
16732;DHT22;8484;50.904;9.192;2023-08-31T14:45:12;19.40;99.90
16732;DHT22;8484;50.904;9.192;2023-08-31T14:47:39;19.20;99.90
16732;DHT22;8484;50.904;9.192;2023-08-31T14:50:08;19.20;99.90
16732;DHT22;8484;50.904;9.192;2023-08-31T14:52:35;19.20;99.90
16732;DHT22;8484;50.904;9.192;2023-08-31T14:55:02;19.30;99.90
16732;DHT22;8484;50.904;9.192;2023-08-31T14:57:31;19.10;99.90
16732;DHT22;8484;50.904;9.192;2023-08-31T14:59:58;18.80;99.90
16732;DHT22;8484;50.904;9.192;2023-08-31T15:02:25;18.90;99.90
16732;DHT22;8484;50.904;9.192;2023-08-31T15:04:52;18.70;99.90
16732;DHT22;8484;50.904;9.192;2023-08-31T15:07:19;18.90;99.90
16732;DHT22;8484;50.904;9.192;2023-08-31T15:09:45;18.60;99.90
16732;DHT22;8484;50.904;9.192;2023-08-31T15:12:12;18.50;99.90
16732;DHT22;8484;50.904;9.192;2023-08-31T15:14:41;18.50;99.90
16732;DHT22;8484;50.904;9.192;2023-08-31T15:17:08;18.30;99.90
16732;DHT22;8484;50.904;9.192;2023-08-31T15:19:35;18.20;99.90
16732;DHT22;8484;50.904;9.192;2023-08-31T15:22:02;18.00;99.90
16732;DHT22;8484;50.904;9.192;2023-08-31T15:24:29;18.10;99.90
16732;DHT22;8484;50.904;9.192;2023-08-31T15:26:58;18.00;99.90
16732;DHT22;8484;50.904;9.192;2023-08-31T15:29:25;17.90;99.90
16732;DHT22;8484;50.904;9.192;2023-08-31T15:31:54;17.70;99.90
16732;DHT22;8484;50.904;9.192;2023-08-31T15:34:21;17.80;99.90
16732;DHT22;8484;50.904;9.192;2023-08-31T15:36:48;17.70;99.90
16732;DHT22;8484;50.904;9.192;2023-08-31T15:39:15;17.50;99.90
16732;DHT22;8484;50.904;9.192;2023-08-31T15:41:42;17.40;99.90
16732;DHT22;8484;50.904;9.192;2023-08-31T15:44:09;16.80;99.90
16732;DHT22;8484;50.904;9.192;2023-08-31T15:46:36;16.60;99.90
16732;DHT22;8484;50.904;9.192;2023-08-31T15:49:04;16.30;99.90
16732;DHT22;8484;50.904;9.192;2023-08-31T15:51:31;16.10;99.90